New Harbor, ME (Heathkit)

43° 52' 34"N, 69° 29' 40"W, Elevation 65 ft.
Eastern Time

Hourly observations for the last 72 hours

Date Time Temperature (°F) Humi-
dity

(%)
Wind
(mph)
Pressure Rain (in)
Air Dew 6 Hour 1 Hr 3 Hr 6 Hr Day
Alt
(in)
Sea
Level

(mb)
Max Min
28 15:00 74 61 63 S 3 G 11 29.77 1008.2 0.12
28 14:00 73 60 73 58 64 ESE 3 G 9 29.78 1008.5 0.12
28 13:00 72 59 63 SSW 5 G 10 29.79 1008.8 0.12
28 12:00 71 63 75 E 3 G 12 29.80 1009.2 0.12
28 11:00 68 61 78 ESE 3 G 8 29.80 1009.2 0.12
28 10:00 67 61 81 S 3 G 7 29.81 1009.5 0.12
28 09:00 64 59 83 S 2 G 7 29.80 1009.2 0.12
28 08:00 60 55 62 54 84 E 2 G 6 29.80 1009.2 0.01 0.01 0.01 0.12
28 07:00 57 53 85 SSE 2 G 5 29.78 1008.5 0.11
28 06:00 59 56 90 SSE 1 G 4 29.76 1007.8 0.11
28 05:00 61 59 92 SSW 1 G 4 29.75 1007.5 0.11
28 04:00 62 60 92 ESE 0 G 2 29.73 1006.8 0.11
28 03:00 62 59 91 ESE 0 G 2 29.72 1006.5 0.11
28 02:00 62 59 69 58 91 ESE 0 G 1 29.72 1006.5 0.08 0.31 0.42 0.11
28 01:00 62 59 90 SE 0 G 1 29.73 1006.8 0.03 0.03
28 00:00 63 60 90 S 0 G 1 29.73 1006.8 0.20 0.29
27 23:00 63 59 88 ESE 1 G 4 29.73 1006.8 0.11 0.12
27 22:00 63 59 87 S 1 G 4 29.72 1006.5 0.04 0.12
27 21:00 65 60 85 E 0 G 1 29.73 1006.8 0.07 0.08
27 20:00 69 64 83 68 84 SSW 1 G 7 29.74 1007.1 0.00
27 19:00 73 67 82 SSW 2 G 7 29.71 1006.1 0.00
27 18:00 76 70 82 SW 2 G 6 29.70 1005.8 0.00
27 17:00 78 71 78 SW 1 G 4 29.69 1005.5 0.00
27 16:00 80 72 77 SSW 3 G 14 29.69 1005.5 0.00
27 15:00 83 73 73 SSW 3 G 7 29.69 1005.5 0.00
27 14:00 81 69 81 63 66 SSW 3 G 8 29.68 1005.1 0.00
27 13:00 79 69 71 SSW 4 G 11 29.69 1005.5 0.00
27 12:00 79 70 74 S 3 G 9 29.69 1005.5 0.00
27 11:00 78 71 78 S 3 G 8 29.68 1005.1 0.00
27 10:00 76 69 79 SSW 3 G 9 29.69 1005.5 0.00
27 09:00 73 66 80 SSW 2 G 7 29.68 1005.1 0.00
27 08:00 69 63 69 57 81 S 2 G 4 29.68 1005.1 0.00
27 07:00 66 60 81 S 1 G 5 29.68 1005.1 0.00
27 06:00 65 60 84 S 2 G 6 29.67 1004.8 0.00
27 05:00 64 60 88 S 1 G 4 29.64 1003.8 0.00
27 04:00 65 61 88 SSW 1 G 2 29.64 1003.8 0.00
27 03:00 65 61 88 SE 1 G 3 29.64 1003.8 0.00
27 02:00 65 61 68 60 88 SSW 0 G 2 29.63 1003.4 0.00
27 01:00 64 60 88 S 1 G 1 29.63 1003.4 0.00
27 00:00 65 61 86 SW 1 G 3 29.64 1003.8 0.01
26 23:00 66 61 85 WSW 4 G 7 29.64 1003.8 0.01
26 22:00 66 61 85 SW 1 G 3 29.64 1003.8 0.01
26 21:00 67 62 84 SW 2 G 4 29.64 1003.8 0.01
26 20:00 68 63 77 64 83 WSW 2 G 8 29.61 1002.7 0.01
26 19:00 71 66 83 SW 2 G 9 29.61 1002.7 0.01
26 18:00 74 68 82 S 2 G 6 29.60 1002.4 0.01
26 17:00 75 69 82 S 2 G 7 29.61 1002.7 0.01
26 16:00 76 70 81 S 3 G 8 29.61 1002.7 0.01
26 15:00 77 71 81 S 4 G 8 29.62 1003.1 0.01
26 14:00 77 70 77 63 80 S 2 G 9 29.62 1003.1 0.01
26 13:00 76 69 80 SW 3 G 7 29.62 1003.1 0.01
26 12:00 75 68 80 SW 2 G 6 29.63 1003.4 0.01
26 11:00 72 65 79 SSE 2 G 4 29.63 1003.4 0.01
26 10:00 69 63 82 S 2 G 6 29.63 1003.4 0.01
26 09:00 67 64 91 ESE 1 G 3 29.65 1004.1 0.01
26 08:00 66 64 66 57 92 SE 1 G 2 29.64 1003.8 0.01
26 07:00 65 63 93 S 0 G 1 29.63 1003.4 0.01
26 06:00 63 61 93 SSW 0 G 1 29.62 1003.1 0.01
26 05:00 63 61 93 E 0 G 1 29.60 1002.4 0.01
26 04:00 63 61 92 E 0 G 1 29.61 1002.7 0.01
26 03:00 64 62 93 S 1 G 3 29.62 1003.1 0.01
26 02:00 64 62 64 57 93 SW 0 G 4 29.63 1003.4 0.01 0.01 0.01 0.01
26 01:00 63 61 93 WSW 3 G 9 29.64 1003.8 0.00
26 00:00 63 61 93 WSW 3 G 9 29.64 1003.8 0.36
25 23:00 62 60 92 WSW 3 G 6 29.65 1004.1 0.36
25 22:00 62 59 90 E 0 G 4 29.66 1004.4 0.36
25 21:00 63 60 89 SSW 1 G 5 29.65 1004.1 0.36
25 20:00 64 60 65 56 86 S 2 G 6 29.64 1003.8 0.03 0.36
25 19:00 64 60 86 S 2 G 6 29.65 1004.1 0.36
25 18:00 65 61 86 S 4 G 13 29.64 1003.8 0.36
25 17:00 64 61 89 S 5 G 13 29.65 1004.1 0.03 0.36
25 16:00 64 61 90 S 8 G 15 29.66 1004.4 0.36

Data generated by WxSolution Version 1.9.1.8, Build 2020.02.16.